sensor_id;sensor_type;location;lat;lon;timestamp;pressure;altitude;pressure_sealevel;temperature;humidity
63568;BME280;49715;42.386;20.434;2022-07-23T00:01:24;97488.59;;;22.93;42.41
63568;BME280;49715;42.386;20.434;2022-07-23T00:03:50;97486.13;;;22.92;42.27
63568;BME280;49715;42.386;20.434;2022-07-23T00:06:18;97487.44;;;22.89;42.20
63568;BME280;49715;42.386;20.434;2022-07-23T00:08:44;97488.41;;;22.88;42.54
63568;BME280;49715;42.386;20.434;2022-07-23T00:11:10;97492.97;;;22.87;42.59
63568;BME280;49715;42.386;20.434;2022-07-23T00:13:36;97495.09;;;22.85;42.56
63568;BME280;49715;42.386;20.434;2022-07-23T00:16:03;97491.56;;;22.85;42.46
63568;BME280;49715;42.386;20.434;2022-07-23T00:18:29;97493.66;;;22.83;42.38
63568;BME280;49715;42.386;20.434;2022-07-23T00:20:55;97501.38;;;22.79;42.97
63568;BME280;49715;42.386;20.434;2022-07-23T00:23:21;97506.22;;;22.71;42.46
63568;BME280;49715;42.386;20.434;2022-07-23T00:25:47;97508.16;;;22.63;42.37
63568;BME280;49715;42.386;20.434;2022-07-23T00:28:13;97504.13;;;22.54;43.40
63568;BME280;49715;42.386;20.434;2022-07-23T00:30:39;97503.41;;;22.47;43.13
63568;BME280;49715;42.386;20.434;2022-07-23T00:33:06;97504.75;;;22.38;43.18
63568;BME280;49715;42.386;20.434;2022-07-23T00:35:34;97502.19;;;22.25;44.65
63568;BME280;49715;42.386;20.434;2022-07-23T00:38:00;97495.53;;;22.09;45.50
63568;BME280;49715;42.386;20.434;2022-07-23T00:40:29;97508.47;;;21.94;45.11
63568;BME280;49715;42.386;20.434;2022-07-23T00:42:55;97507.78;;;21.80;46.57
63568;BME280;49715;42.386;20.434;2022-07-23T00:45:22;97505.41;;;21.65;45.79
63568;BME280;49715;42.386;20.434;2022-07-23T00:47:49;97508.81;;;21.54;46.31
63568;BME280;49715;42.386;20.434;2022-07-23T00:50:16;97506.63;;;21.44;46.29
63568;BME280;49715;42.386;20.434;2022-07-23T00:52:42;97514.72;;;21.38;45.19
63568;BME280;49715;42.386;20.434;2022-07-23T00:55:11;97518.88;;;21.33;45.10
63568;BME280;49715;42.386;20.434;2022-07-23T00:57:38;97515.56;;;21.31;44.87
63568;BME280;49715;42.386;20.434;2022-07-23T01:00:05;97516.81;;;21.29;45.98
63568;BME280;49715;42.386;20.434;2022-07-23T01:02:32;97524.84;;;21.29;45.34
63568;BME280;49715;42.386;20.434;2022-07-23T01:04:59;97518.88;;;21.27;45.27
63568;BME280;49715;42.386;20.434;2022-07-23T01:07:26;97511.66;;;21.27;44.84
63568;BME280;49715;42.386;20.434;2022-07-23T01:09:53;97521.56;;;21.27;44.98
63568;BME280;49715;42.386;20.434;2022-07-23T01:12:20;97512.91;;;21.25;45.07
63568;BME280;49715;42.386;20.434;2022-07-23T01:14:59;97519.31;;;21.24;45.96
63568;BME280;49715;42.386;20.434;2022-07-23T01:17:28;97517.06;;;21.21;45.06
63568;BME280;49715;42.386;20.434;2022-07-23T01:19:54;97522.66;;;21.19;45.77
63568;BME280;49715;42.386;20.434;2022-07-23T01:22:21;97522.03;;;21.17;46.47
63568;BME280;49715;42.386;20.434;2022-07-23T01:24:48;97512.56;;;21.15;45.35
63568;BME280;49715;42.386;20.434;2022-07-23T01:27:20;97516.88;;;21.16;47.01
63568;BME280;49715;42.386;20.434;2022-07-23T01:29:49;97514.44;;;21.14;45.87
63568;BME280;49715;42.386;20.434;2022-07-23T01:32:18;97517.94;;;21.15;45.39
63568;BME280;49715;42.386;20.434;2022-07-23T01:34:45;97517.72;;;21.16;45.84
63568;BME280;49715;42.386;20.434;2022-07-23T01:37:12;97522.03;;;21.17;45.53
63568;BME280;49715;42.386;20.434;2022-07-23T01:39:38;97514.81;;;21.18;45.38
63568;BME280;49715;42.386;20.434;2022-07-23T01:42:05;97521.81;;;21.19;45.29
63568;BME280;49715;42.386;20.434;2022-07-23T01:44:33;97515.84;;;21.17;45.49
63568;BME280;49715;42.386;20.434;2022-07-23T01:46:59;97517.47;;;21.18;45.26
63568;BME280;49715;42.386;20.434;2022-07-23T01:49:25;97516.47;;;21.19;45.29
63568;BME280;49715;42.386;20.434;2022-07-23T01:52:00;97513.56;;;21.20;45.78
63568;BME280;49715;42.386;20.434;2022-07-23T01:54:38;97512.34;;;21.16;45.24
63568;BME280;49715;42.386;20.434;2022-07-23T01:57:06;97511.19;;;21.05;45.33
63568;BME280;49715;42.386;20.434;2022-07-23T01:59:33;97518.63;;;20.97;46.11
63568;BME280;49715;42.386;20.434;2022-07-23T02:02:00;97523.00;;;20.91;46.01
63568;BME280;49715;42.386;20.434;2022-07-23T02:04:27;97520.75;;;20.88;45.56
63568;BME280;49715;42.386;20.434;2022-07-23T02:06:55;97518.06;;;20.88;45.85
63568;BME280;49715;42.386;20.434;2022-07-23T02:09:21;97521.78;;;20.87;46.24
63568;BME280;49715;42.386;20.434;2022-07-23T02:11:47;97523.63;;;20.87;45.77
63568;BME280;49715;42.386;20.434;2022-07-23T02:14:13;97526.53;;;20.85;45.83
63568;BME280;49715;42.386;20.434;2022-07-23T02:16:39;97528.41;;;20.85;45.80
63568;BME280;49715;42.386;20.434;2022-07-23T02:19:05;97533.34;;;20.81;45.30
63568;BME280;49715;42.386;20.434;2022-07-23T02:21:32;97535.63;;;20.77;45.97
63568;BME280;49715;42.386;20.434;2022-07-23T02:23:58;97540.00;;;20.72;45.72
63568;BME280;49715;42.386;20.434;2022-07-23T02:26:24;97537.94;;;20.67;46.74
63568;BME280;49715;42.386;20.434;2022-07-23T02:28:52;97535.06;;;20.62;45.58
63568;BME280;49715;42.386;20.434;2022-07-23T02:31:19;97535.94;;;20.56;45.56
63568;BME280;49715;42.386;20.434;2022-07-23T02:33:46;97539.25;;;20.51;45.71
63568;BME280;49715;42.386;20.434;2022-07-23T02:36:13;97537.19;;;20.47;45.51
63568;BME280;49715;42.386;20.434;2022-07-23T02:38:40;97540.69;;;20.41;45.71
63568;BME280;49715;42.386;20.434;2022-07-23T02:41:07;97537.41;;;20.32;46.04
63568;BME280;49715;42.386;20.434;2022-07-23T02:43:33;97539.47;;;20.23;46.36
63568;BME280;49715;42.386;20.434;2022-07-23T02:46:00;97544.84;;;20.17;46.11
63568;BME280;49715;42.386;20.434;2022-07-23T02:48:27;97537.66;;;20.11;46.06
63568;BME280;49715;42.386;20.434;2022-07-23T02:50:53;97540.13;;;20.05;46.30
63568;BME280;49715;42.386;20.434;2022-07-23T02:53:26;97534.81;;;19.92;46.22
63568;BME280;49715;42.386;20.434;2022-07-23T02:55:52;97545.50;;;19.92;46.33
63568;BME280;49715;42.386;20.434;2022-07-23T02:58:18;97543.84;;;19.85;45.81
63568;BME280;49715;42.386;20.434;2022-07-23T03:00:44;97546.53;;;19.78;46.62
63568;BME280;49715;42.386;20.434;2022-07-23T03:03:12;97556.59;;;19.76;46.68
63568;BME280;49715;42.386;20.434;2022-07-23T03:05:38;97561.34;;;19.74;46.87
63568;BME280;49715;42.386;20.434;2022-07-23T03:08:04;97559.88;;;19.71;46.82
63568;BME280;49715;42.386;20.434;2022-07-23T03:10:34;97562.56;;;19.71;46.94
63568;BME280;49715;42.386;20.434;2022-07-23T03:13:00;97554.75;;;19.70;47.05
63568;BME280;49715;42.386;20.434;2022-07-23T03:15:26;97566.28;;;19.70;47.33
63568;BME280;49715;42.386;20.434;2022-07-23T03:17:52;97567.72;;;19.73;47.07
63568;BME280;49715;42.386;20.434;2022-07-23T03:20:19;97565.88;;;19.73;47.17
63568;BME280;49715;42.386;20.434;2022-07-23T03:22:45;97571.63;;;19.70;47.14
63568;BME280;49715;42.386;20.434;2022-07-23T03:25:11;97566.47;;;19.69;46.92
63568;BME280;49715;42.386;20.434;2022-07-23T03:27:37;97571.22;;;19.67;46.95
63568;BME280;49715;42.386;20.434;2022-07-23T03:30:04;97583.13;;;19.64;47.62
63568;BME280;49715;42.386;20.434;2022-07-23T03:32:30;97569.94;;;19.56;47.59
63568;BME280;49715;42.386;20.434;2022-07-23T03:34:57;97568.91;;;19.44;47.46
63568;BME280;49715;42.386;20.434;2022-07-23T03:37:27;97569.28;;;19.34;48.19
63568;BME280;49715;42.386;20.434;2022-07-23T03:39:58;97572.56;;;19.29;47.80
63568;BME280;49715;42.386;20.434;2022-07-23T03:42:26;97582.22;;;19.30;49.44
63568;BME280;49715;42.386;20.434;2022-07-23T03:44:53;97578.53;;;19.32;48.23
63568;BME280;49715;42.386;20.434;2022-07-23T03:47:19;97578.13;;;19.35;48.00
63568;BME280;49715;42.386;20.434;2022-07-23T03:49:48;97569.50;;;19.33;48.18
63568;BME280;49715;42.386;20.434;2022-07-23T03:52:14;97578.94;;;19.42;48.48
63568;BME280;49715;42.386;20.434;2022-07-23T03:54:40;97581.44;;;19.43;47.61
63568;BME280;49715;42.386;20.434;2022-07-23T03:57:06;97583.91;;;19.45;47.51
63568;BME280;49715;42.386;20.434;2022-07-23T03:59:33;97581.84;;;19.47;48.25
63568;BME280;49715;42.386;20.434;2022-07-23T04:02:00;97581.44;;;19.50;48.21
63568;BME280;49715;42.386;20.434;2022-07-23T04:04:27;97584.72;;;19.52;47.93
63568;BME280;49715;42.386;20.434;2022-07-23T04:06:53;97588.84;;;19.54;47.83
63568;BME280;49715;42.386;20.434;2022-07-23T04:09:19;97591.31;;;19.56;47.62
63568;BME280;49715;42.386;20.434;2022-07-23T04:11:45;97600.78;;;19.59;48.30
63568;BME280;49715;42.386;20.434;2022-07-23T04:14:11;97593.41;;;19.61;48.02
63568;BME280;49715;42.386;20.434;2022-07-23T04:16:38;97595.47;;;19.65;47.85
63568;BME280;49715;42.386;20.434;2022-07-23T04:19:05;97596.72;;;19.69;47.54
63568;BME280;49715;42.386;20.434;2022-07-23T04:21:40;97586.88;;;19.76;47.43
63568;BME280;49715;42.386;20.434;2022-07-23T04:24:07;97591.38;;;19.83;47.87
63568;BME280;49715;42.386;20.434;2022-07-23T04:26:33;97593.00;;;19.90;47.40
63568;BME280;49715;42.386;20.434;2022-07-23T04:28:59;97591.19;;;19.97;46.84
63568;BME280;49715;42.386;20.434;2022-07-23T04:31:26;97595.91;;;20.02;47.74
63568;BME280;49715;42.386;20.434;2022-07-23T04:33:52;97599.41;;;20.09;47.44
63568;BME280;49715;42.386;20.434;2022-07-23T04:36:20;97595.28;;;20.13;47.12
63568;BME280;49715;42.386;20.434;2022-07-23T04:38:47;97598.16;;;20.18;47.89
63568;BME280;49715;42.386;20.434;2022-07-23T04:41:13;97597.75;;;20.21;46.35
63568;BME280;49715;42.386;20.434;2022-07-23T04:43:39;97591.78;;;20.26;46.49
63568;BME280;49715;42.386;20.434;2022-07-23T04:46:06;97596.28;;;20.32;46.38
63568;BME280;49715;42.386;20.434;2022-07-23T04:48:38;97607.19;;;20.37;46.40
63568;BME280;49715;42.386;20.434;2022-07-23T04:51:09;97590.31;;;20.37;47.00
63568;BME280;49715;42.386;20.434;2022-07-23T04:53:36;97597.91;;;20.46;47.22
63568;BME280;49715;42.386;20.434;2022-07-23T04:56:03;97600.00;;;20.51;47.47
63568;BME280;49715;42.386;20.434;2022-07-23T04:58:30;97589.47;;;20.56;46.90
63568;BME280;49715;42.386;20.434;2022-07-23T05:00:59;97589.44;;;20.63;46.61
63568;BME280;49715;42.386;20.434;2022-07-23T05:03:26;97589.66;;;20.68;46.41
63568;BME280;49715;42.386;20.434;2022-07-23T05:05:52;97592.31;;;20.74;46.54
63568;BME280;49715;42.386;20.434;2022-07-23T05:08:20;97587.97;;;20.80;46.01
63568;BME280;49715;42.386;20.434;2022-07-23T05:10:50;97587.72;;;20.88;45.57
63568;BME280;49715;42.386;20.434;2022-07-23T05:13:17;97588.75;;;20.94;45.87
63568;BME280;49715;42.386;20.434;2022-07-23T05:15:44;97588.50;;;21.02;45.54
63568;BME280;49715;42.386;20.434;2022-07-23T05:18:11;97590.94;;;21.10;45.35
63568;BME280;49715;42.386;20.434;2022-07-23T05:20:37;97587.38;;;21.16;45.80
63568;BME280;49715;42.386;20.434;2022-07-23T05:23:04;97587.16;;;21.24;45.89
63568;BME280;49715;42.386;20.434;2022-07-23T05:25:31;97592.28;;;21.32;45.68
63568;BME280;49715;42.386;20.434;2022-07-23T05:27:57;97593.28;;;21.38;46.11
63568;BME280;49715;42.386;20.434;2022-07-23T05:30:23;97589.75;;;21.44;45.93
63568;BME280;49715;42.386;20.434;2022-07-23T05:32:53;97594.00;;;21.52;45.63
63568;BME280;49715;42.386;20.434;2022-07-23T05:35:20;97600.75;;;21.61;45.25
63568;BME280;49715;42.386;20.434;2022-07-23T05:38:00;97598.44;;;21.71;46.00
63568;BME280;49715;42.386;20.434;2022-07-23T05:40:27;97594.66;;;21.79;45.38
63568;BME280;49715;42.386;20.434;2022-07-23T05:42:53;97588.81;;;21.89;45.20
63568;BME280;49715;42.386;20.434;2022-07-23T05:45:19;97588.31;;;21.98;45.35
63568;BME280;49715;42.386;20.434;2022-07-23T05:47:46;97588.88;;;22.07;44.94
63568;BME280;49715;42.386;20.434;2022-07-23T05:50:17;97590.88;;;22.18;45.07
63568;BME280;49715;42.386;20.434;2022-07-23T05:52:49;97593.03;;;22.28;45.04
63568;BME280;49715;42.386;20.434;2022-07-23T05:55:24;97589.28;;;22.35;44.51
63568;BME280;49715;42.386;20.434;2022-07-23T05:57:51;97595.97;;;22.45;45.13
63568;BME280;49715;42.386;20.434;2022-07-23T06:00:17;97595.91;;;22.51;44.43
63568;BME280;49715;42.386;20.434;2022-07-23T06:02:46;97591.91;;;22.60;44.07
63568;BME280;49715;42.386;20.434;2022-07-23T06:05:15;97599.88;;;22.67;44.96
63568;BME280;49715;42.386;20.434;2022-07-23T06:07:43;97594.41;;;22.74;44.55
63568;BME280;49715;42.386;20.434;2022-07-23T06:10:09;97597.06;;;22.80;43.89
63568;BME280;49715;42.386;20.434;2022-07-23T06:12:37;97591.19;;;22.90;44.17
63568;BME280;49715;42.386;20.434;2022-07-23T06:15:03;97589.84;;;22.99;44.13
63568;BME280;49715;42.386;20.434;2022-07-23T06:17:31;97583.09;;;23.08;43.59
63568;BME280;49715;42.386;20.434;2022-07-23T06:19:57;97585.69;;;23.15;44.47
63568;BME280;49715;42.386;20.434;2022-07-23T06:22:23;97587.22;;;23.23;43.43
63568;BME280;49715;42.386;20.434;2022-07-23T06:24:49;97580.50;;;23.32;43.51
63568;BME280;49715;42.386;20.434;2022-07-23T06:27:17;97584.28;;;23.43;43.08
63568;BME280;49715;42.386;20.434;2022-07-23T06:29:43;97587.25;;;23.53;43.84
63568;BME280;49715;42.386;20.434;2022-07-23T06:32:09;97586.09;;;23.60;43.22
63568;BME280;49715;42.386;20.434;2022-07-23T06:34:35;97583.09;;;23.69;42.49
63568;BME280;49715;42.386;20.434;2022-07-23T06:39:27;97585.25;;;23.90;42.78
63568;BME280;49715;42.386;20.434;2022-07-23T06:41:57;97591.13;;;23.99;42.12
63568;BME280;49715;42.386;20.434;2022-07-23T06:44:35;97584.91;;;24.10;42.55
63568;BME280;49715;42.386;20.434;2022-07-23T06:47:01;97591.59;;;24.19;41.90
63568;BME280;49715;42.386;20.434;2022-07-23T06:49:28;97594.78;;;24.28;42.00
63568;BME280;49715;42.386;20.434;2022-07-23T06:51:57;97582.84;;;24.35;41.95
63568;BME280;49715;42.386;20.434;2022-07-23T06:54:23;97581.66;;;24.43;42.05
63568;BME280;49715;42.386;20.434;2022-07-23T06:56:51;97587.78;;;24.50;41.78
63568;BME280;49715;42.386;20.434;2022-07-23T06:59:17;97582.25;;;24.57;41.26
63568;BME280;49715;42.386;20.434;2022-07-23T07:01:43;97576.50;;;24.65;41.14
63568;BME280;49715;42.386;20.434;2022-07-23T07:04:09;97579.41;;;24.75;40.90
63568;BME280;49715;42.386;20.434;2022-07-23T07:06:37;97576.59;;;24.82;40.89
63568;BME280;49715;42.386;20.434;2022-07-23T07:09:03;97573.75;;;24.88;41.37
63568;BME280;49715;42.386;20.434;2022-07-23T07:11:29;97570.22;;;25.00;41.01
63568;BME280;49715;42.386;20.434;2022-07-23T07:13:55;97556.84;;;25.05;40.77
63568;BME280;49715;42.386;20.434;2022-07-23T07:16:22;97570.16;;;25.23;40.62
63568;BME280;49715;42.386;20.434;2022-07-23T07:18:48;97565.19;;;25.32;40.32
63568;BME280;49715;42.386;20.434;2022-07-23T07:21:14;97567.25;;;25.41;41.02
63568;BME280;49715;42.386;20.434;2022-07-23T07:23:40;97567.44;;;25.52;40.40
63568;BME280;49715;42.386;20.434;2022-07-23T07:26:07;97562.22;;;25.62;40.20
63568;BME280;49715;42.386;20.434;2022-07-23T07:28:33;97560.53;;;25.73;40.55
63568;BME280;49715;42.386;20.434;2022-07-23T07:30:59;97557.22;;;25.82;40.32
63568;BME280;49715;42.386;20.434;2022-07-23T07:33:26;97557.38;;;25.92;39.92
63568;BME280;49715;42.386;20.434;2022-07-23T07:35:52;97557.28;;;26.04;40.24
63568;BME280;49715;42.386;20.434;2022-07-23T07:38:18;97551.47;;;26.12;40.30
63568;BME280;49715;42.386;20.434;2022-07-23T08:38:42;97528.94;;;28.30;35.90
63568;BME280;49715;42.386;20.434;2022-07-23T08:41:10;97551.34;;;28.52;35.81
63568;BME280;49715;42.386;20.434;2022-07-23T08:43:36;97547.56;;;28.58;35.96
63568;BME280;49715;42.386;20.434;2022-07-23T08:46:03;97554.16;;;28.72;35.56
63568;BME280;49715;42.386;20.434;2022-07-23T08:48:32;97541.19;;;28.85;35.23
63568;BME280;49715;42.386;20.434;2022-07-23T08:51:01;97541.81;;;28.97;35.83
63568;BME280;49715;42.386;20.434;2022-07-23T08:53:29;97543.47;;;29.08;35.70
63568;BME280;49715;42.386;20.434;2022-07-23T08:55:58;97541.31;;;29.15;35.69
63568;BME280;49715;42.386;20.434;2022-07-23T08:58:25;97544.34;;;29.29;34.98
63568;BME280;49715;42.386;20.434;2022-07-23T09:00:52;97551.41;;;29.40;35.17
63568;BME280;49715;42.386;20.434;2022-07-23T09:03:26;97543.81;;;29.42;35.42
63568;BME280;49715;42.386;20.434;2022-07-23T09:05:55;97542.22;;;29.57;35.20
63568;BME280;49715;42.386;20.434;2022-07-23T09:08:44;97540.09;;;29.69;35.21
63568;BME280;49715;42.386;20.434;2022-07-23T09:11:17;97543.63;;;29.80;34.80
63568;BME280;49715;42.386;20.434;2022-07-23T09:13:47;97540.09;;;29.89;34.67
63568;BME280;49715;42.386;20.434;2022-07-23T09:16:18;97536.81;;;30.02;34.68
63568;BME280;49715;42.386;20.434;2022-07-23T09:18:47;97537.94;;;30.17;34.43
63568;BME280;49715;42.386;20.434;2022-07-23T09:21:19;97527.84;;;30.33;34.16
63568;BME280;49715;42.386;20.434;2022-07-23T09:29:10;97521.75;;;30.71;33.23
63568;BME280;49715;42.386;20.434;2022-07-23T09:31:54;97521.41;;;30.88;33.05
63568;BME280;49715;42.386;20.434;2022-07-23T09:34:32;97513.47;;;30.97;33.00
63568;BME280;49715;42.386;20.434;2022-07-23T09:37:15;97509.88;;;31.07;32.45
63568;BME280;49715;42.386;20.434;2022-07-23T09:39:43;97511.44;;;31.18;32.43
63568;BME280;49715;42.386;20.434;2022-07-23T09:42:18;97501.88;;;31.31;32.16
63568;BME280;49715;42.386;20.434;2022-07-23T09:44:49;97492.81;;;31.40;32.46
63568;BME280;49715;42.386;20.434;2022-07-23T09:47:17;97505.47;;;31.60;32.42
63568;BME280;49715;42.386;20.434;2022-07-23T09:50:08;97511.09;;;31.74;31.89
63568;BME280;49715;42.386;20.434;2022-07-23T09:52:43;97511.00;;;31.89;32.20
63568;BME280;49715;42.386;20.434;2022-07-23T09:55:10;97511.13;;;32.03;31.81
63568;BME280;49715;42.386;20.434;2022-07-23T09:57:36;97506.91;;;32.16;31.78
63568;BME280;49715;42.386;20.434;2022-07-23T10:00:07;97495.28;;;32.34;31.76
63568;BME280;49715;42.386;20.434;2022-07-23T10:02:36;97502.00;;;32.47;31.49
63568;BME280;49715;42.386;20.434;2022-07-23T10:05:23;97497.53;;;32.56;31.55
63568;BME280;49715;42.386;20.434;2022-07-23T10:07:58;97485.06;;;32.69;31.70
63568;BME280;49715;42.386;20.434;2022-07-23T10:10:46;97489.22;;;32.90;31.14
63568;BME280;49715;42.386;20.434;2022-07-23T10:13:22;97484.34;;;33.06;31.44
63568;BME280;49715;42.386;20.434;2022-07-23T10:15:51;97484.41;;;33.20;31.18
63568;BME280;49715;42.386;20.434;2022-07-23T10:18:18;97478.16;;;33.38;31.26
63568;BME280;49715;42.386;20.434;2022-07-23T10:20:48;97470.91;;;33.47;31.05
63568;BME280;49715;42.386;20.434;2022-07-23T10:23:27;97469.56;;;33.64;30.81
63568;BME280;49715;42.386;20.434;2022-07-23T10:26:05;97467.47;;;33.74;30.53
63568;BME280;49715;42.386;20.434;2022-07-23T10:35:00;97456.41;;;34.26;29.68
63568;BME280;49715;42.386;20.434;2022-07-23T10:37:39;97444.78;;;34.34;30.14
63568;BME280;49715;42.386;20.434;2022-07-23T10:40:20;97444.81;;;34.48;30.08
63568;BME280;49715;42.386;20.434;2022-07-23T10:42:50;97444.16;;;34.65;30.15
63568;BME280;49715;42.386;20.434;2022-07-23T10:45:34;97439.69;;;34.82;29.60
63568;BME280;49715;42.386;20.434;2022-07-23T10:50:40;97421.28;;;35.11;28.99
63568;BME280;49715;42.386;20.434;2022-07-23T10:58:02;97418.84;;;35.45;28.42
63568;BME280;49715;42.386;20.434;2022-07-23T11:00:31;97418.69;;;35.50;28.15
63568;BME280;49715;42.386;20.434;2022-07-23T11:03:03;97420.38;;;35.60;28.33
63568;BME280;49715;42.386;20.434;2022-07-23T11:05:42;97418.69;;;35.73;27.69
63568;BME280;49715;42.386;20.434;2022-07-23T11:10:48;97418.75;;;35.90;27.15
63568;BME280;49715;42.386;20.434;2022-07-23T11:16:08;97409.19;;;36.10;26.09
63568;BME280;49715;42.386;20.434;2022-07-23T11:24:00;97400.34;;;36.61;25.64
63568;BME280;49715;42.386;20.434;2022-07-23T11:29:37;97389.56;;;37.08;24.68
63568;BME280;49715;42.386;20.434;2022-07-23T11:32:07;97375.66;;;37.31;25.56
63568;BME280;49715;42.386;20.434;2022-07-23T11:34:45;97383.06;;;37.56;24.44
63568;BME280;49715;42.386;20.434;2022-07-23T11:37:34;97380.91;;;37.71;23.97
63568;BME280;49715;42.386;20.434;2022-07-23T11:40:11;97383.97;;;37.86;23.86
63568;BME280;49715;42.386;20.434;2022-07-23T11:42:39;97369.53;;;37.98;24.16
63568;BME280;49715;42.386;20.434;2022-07-23T11:45:07;97376.19;;;38.27;23.42
63568;BME280;49715;42.386;20.434;2022-07-23T11:47:34;97368.66;;;38.45;23.58
63568;BME280;49715;42.386;20.434;2022-07-23T11:50:04;97365.44;;;38.63;23.53
63568;BME280;49715;42.386;20.434;2022-07-23T12:53:45;97305.28;;;41.15;16.25
63568;BME280;49715;42.386;20.434;2022-07-23T12:56:40;97301.88;;;41.22;17.15
63568;BME280;49715;42.386;20.434;2022-07-23T12:59:08;97297.16;;;41.23;17.33
63568;BME280;49715;42.386;20.434;2022-07-23T13:01:44;97295.59;;;41.09;16.96
63568;BME280;49715;42.386;20.434;2022-07-23T13:04:18;97290.34;;;41.04;16.97
63568;BME280;49715;42.386;20.434;2022-07-23T13:06:49;97272.69;;;41.09;17.46
63568;BME280;49715;42.386;20.434;2022-07-23T13:09:21;97291.22;;;41.36;17.42
63568;BME280;49715;42.386;20.434;2022-07-23T13:11:48;97278.28;;;41.56;17.32
63568;BME280;49715;42.386;20.434;2022-07-23T13:14:18;97274.00;;;41.75;16.92
63568;BME280;49715;42.386;20.434;2022-07-23T13:16:46;97283.66;;;41.97;16.90
63568;BME280;49715;42.386;20.434;2022-07-23T13:19:13;97270.94;;;42.11;16.65
63568;BME280;49715;42.386;20.434;2022-07-23T13:21:40;97272.25;;;42.33;16.47
63568;BME280;49715;42.386;20.434;2022-07-23T13:24:07;97269.41;;;42.49;16.43
63568;BME280;49715;42.386;20.434;2022-07-23T13:26:34;97267.91;;;42.52;16.50
63568;BME280;49715;42.386;20.434;2022-07-23T13:29:01;97268.56;;;42.64;15.92
63568;BME280;49715;42.386;20.434;2022-07-23T14:07:32;97228.84;;;42.76;11.93
63568;BME280;49715;42.386;20.434;2022-07-23T14:09:58;97226.28;;;42.87;12.52
63568;BME280;49715;42.386;20.434;2022-07-23T14:12:26;97226.84;;;42.96;12.20
63568;BME280;49715;42.386;20.434;2022-07-23T14:14:53;97220.72;;;43.06;12.56
63568;BME280;49715;42.386;20.434;2022-07-23T14:17:20;97222.19;;;43.23;12.30
63568;BME280;49715;42.386;20.434;2022-07-23T14:19:46;97223.22;;;43.38;12.65
63568;BME280;49715;42.386;20.434;2022-07-23T14:22:13;97223.06;;;43.50;13.05
63568;BME280;49715;42.386;20.434;2022-07-23T14:24:40;97228.00;;;43.60;12.49
63568;BME280;49715;42.386;20.434;2022-07-23T14:27:07;97219.38;;;43.42;12.67
63568;BME280;49715;42.386;20.434;2022-07-23T14:29:40;97220.03;;;43.36;12.21
63568;BME280;49715;42.386;20.434;2022-07-23T14:32:12;97211.66;;;43.32;12.79
63568;BME280;49715;42.386;20.434;2022-07-23T14:34:39;97206.03;;;43.29;12.77
63568;BME280;49715;42.386;20.434;2022-07-23T14:37:05;97210.47;;;43.33;12.69
63568;BME280;49715;42.386;20.434;2022-07-23T14:39:32;97216.41;;;43.32;12.37
63568;BME280;49715;42.386;20.434;2022-07-23T14:41:58;97210.28;;;43.23;12.14
63568;BME280;49715;42.386;20.434;2022-07-23T14:44:24;97204.69;;;43.19;12.63
63568;BME280;49715;42.386;20.434;2022-07-23T14:46:51;97209.69;;;43.33;12.33
63568;BME280;49715;42.386;20.434;2022-07-23T14:49:19;97202.41;;;43.48;12.66
63568;BME280;49715;42.386;20.434;2022-07-23T14:51:45;97213.41;;;43.67;13.03
63568;BME280;49715;42.386;20.434;2022-07-23T14:54:12;97208.25;;;43.65;13.04
63568;BME280;49715;42.386;20.434;2022-07-23T14:56:41;97203.56;;;43.69;13.24
63568;BME280;49715;42.386;20.434;2022-07-23T14:59:08;97202.44;;;43.74;13.57
63568;BME280;49715;42.386;20.434;2022-07-23T15:01:35;97196.84;;;43.70;13.47
63568;BME280;49715;42.386;20.434;2022-07-23T15:04:04;97197.63;;;43.71;13.52
63568;BME280;49715;42.386;20.434;2022-07-23T15:06:30;97188.19;;;43.76;13.42
63568;BME280;49715;42.386;20.434;2022-07-23T15:08:57;97191.03;;;43.79;13.44
63568;BME280;49715;42.386;20.434;2022-07-23T15:11:24;97181.94;;;43.82;13.44
63568;BME280;49715;42.386;20.434;2022-07-23T15:13:51;97187.28;;;43.94;13.15
63568;BME280;49715;42.386;20.434;2022-07-23T15:16:17;97179.09;;;44.05;13.25
63568;BME280;49715;42.386;20.434;2022-07-23T15:18:44;97175.25;;;44.13;13.40
63568;BME280;49715;42.386;20.434;2022-07-23T15:21:10;97170.16;;;44.19;13.13
63568;BME280;49715;42.386;20.434;2022-07-23T15:23:37;97166.66;;;44.22;13.17
63568;BME280;49715;42.386;20.434;2022-07-23T15:26:06;97159.13;;;44.23;13.39
63568;BME280;49715;42.386;20.434;2022-07-23T15:28:35;97165.22;;;44.35;13.74
63568;BME280;49715;42.386;20.434;2022-07-23T15:31:02;97153.41;;;44.42;13.93
63568;BME280;49715;42.386;20.434;2022-07-23T15:33:29;97158.16;;;44.41;13.88
63568;BME280;49715;42.386;20.434;2022-07-23T15:35:56;97164.94;;;44.44;13.59
63568;BME280;49715;42.386;20.434;2022-07-23T15:38:26;97158.59;;;44.43;13.74
63568;BME280;49715;42.386;20.434;2022-07-23T15:40:56;97152.97;;;44.40;13.60
63568;BME280;49715;42.386;20.434;2022-07-23T15:43:23;97159.66;;;44.35;14.02
63568;BME280;49715;42.386;20.434;2022-07-23T15:45:51;97154.50;;;44.34;13.61
63568;BME280;49715;42.386;20.434;2022-07-23T15:48:19;97155.22;;;44.27;13.94
63568;BME280;49715;42.386;20.434;2022-07-23T15:50:46;97153.19;;;44.24;13.96
63568;BME280;49715;42.386;20.434;2022-07-23T15:53:13;97155.09;;;44.20;14.14
63568;BME280;49715;42.386;20.434;2022-07-23T15:55:39;97133.50;;;44.06;14.03
63568;BME280;49715;42.386;20.434;2022-07-23T15:58:07;97144.59;;;44.06;14.47
63568;BME280;49715;42.386;20.434;2022-07-23T16:00:33;97144.56;;;44.03;14.28
63568;BME280;49715;42.386;20.434;2022-07-23T16:03:00;97154.78;;;43.95;14.34
63568;BME280;49715;42.386;20.434;2022-07-23T16:05:26;97149.50;;;43.86;14.06
63568;BME280;49715;42.386;20.434;2022-07-23T16:07:54;97157.59;;;43.72;14.26